Wake Island Airfield, Wake Island

4:51 AM WAKT on February 11, 2016 (GMT +1200)
Wake Island Army Air Field | | Change Station
CLOSE
Current Station
Airport
Location: Wake Island, Wake Island Army,
Elevation: 13 ft
Nearby Weather Stations

Elev 13 ft 19.28 °N, 166.64 °E | Updated 53 minutes ago

Clear
Clear
77 °F
Feels Like 77 °F
N
7
Wind Variable Wind from SSE

Today
High -- | Low -- °F
--% Chance of Precip.
Yesterday
High -- | Low -- °F
Precip. -- in
Pressure 29.92 in
Visibility 6.2 miles
Clouds Clear
Dew Point 68 °F
Humidity 76%
Rainfall 0.00 in
Snow Depth Not available.
7:24 AM 6:51 PM
Waxing Crescent, 6% visible
METAR PWAK 101558Z AUTO 16006KT 9999 CLR 25/20 A2990 RMK AO2 SLP131 T02480203 $
Pressure 29.92 in
Visibility 6.2 miles
Clouds Clear
Dew Point 68 °F
Humidity 76%
Rainfall 0.00 in
Snow Depth Not available.
7:24 AM 6:51 PM
Waxing Crescent, 6% visible
METAR PWAK 101558Z AUTO 16006KT 9999 CLR 25/20 A2990 RMK AO2 SLP131 T02480203 $

10-Day Weather Forecast

No radar image for this location.
×

Almanac

Astronomy

Feb. 11, 2016 Rise Set
Actual Time
Civil Twilight
Nautical Twilight
Astronomical Twilight
Moon
Length of Visible Light
Length of Day
Tomorrow will be .
, % of the Moon is Illuminated

Today's Extremes

Country Highs Country Lows

Community

WunderPhotos

Upload Photos

1,891,891 photos uploaded!

WunderBlog® & News

Nearby

Air Quality

  Air Quality AQ Index Pollutant
Not available.

Snow Depth

Station Depth Elevation

Earthquake Activity

City Distance Mag. Time & Date
Minimum magnitude displayed is 2.5.

Coastal Water Temperatures

Place Temperature

Stations

Nearby Weather Stations

Station Location Temp. Windchill Dew Point Humidity Wind Precip. Elev Updated Type